Terminal Aerodrome Forecast
Issued by NWS Charleston, WV

Current Version | Previous Version | Text Only | Print | Product List | Glossary Off
Versions: 1 2 3 4 5 6 7 8 9 10 11 12 13 14 15 16 17 18 19 20 21 22 23 24

252
FTUS41 KRLX 291133
TAFPKB
TAF
KPKB 291133Z 2912/3012 VRB03KT P6SM SCT150
     FM291600 05005KT P6SM SCT040
     FM292000 04005KT P6SM SCT250=

USA.gov is the U.S. government's official web portal to all federal, state and local government web resources and services.